createdAt,value
2018-04-11T00:00:35.754Z,10.25
2018-04-11T00:03:05.849Z,9.90
2018-04-11T00:05:35.067Z,9.93
2018-04-11T00:08:04.395Z,9.77
2018-04-11T00:10:33.624Z,10.50
2018-04-11T00:13:03.661Z,10.77
2018-04-11T00:15:32.907Z,10.40
2018-04-11T00:18:02.466Z,10.20
2018-04-11T00:20:31.997Z,11.35
2018-04-11T00:23:01.691Z,10.45
2018-04-11T00:25:30.910Z,9.52
2018-04-11T00:28:00.438Z,9.32
2018-04-11T00:30:29.792Z,9.50
2018-04-11T00:32:59.012Z,9.75
2018-04-11T00:35:29.213Z,9.02
2018-04-11T00:37:59.203Z,9.70
2018-04-11T00:40:28.631Z,9.93
2018-04-11T00:42:58.730Z,9.65
2018-04-11T00:45:28.258Z,9.27
2018-04-11T00:47:57.481Z,9.55
2018-04-11T00:50:26.861Z,8.40
2018-04-11T00:53:13.930Z,8.95
2018-04-11T00:55:43.301Z,8.60
2018-04-11T00:58:12.499Z,10.05
2018-04-11T01:00:41.881Z,9.70
2018-04-11T01:03:11.103Z,8.77
2018-04-11T01:05:40.478Z,9.88
2018-04-11T01:08:09.702Z,9.00
2018-04-11T01:10:39.030Z,9.38
2018-04-11T01:13:09.109Z,9.73
2018-04-11T01:15:40.554Z,9.20
2018-04-11T01:18:09.772Z,9.30
2018-04-11T01:20:39.152Z,8.88
2018-04-11T01:23:08.376Z,10.05
2018-04-11T01:25:38.439Z,10.20
2018-04-11T01:28:08.147Z,9.80
2018-04-11T01:30:37.577Z,9.13
2018-04-11T01:33:06.809Z,10.15
2018-04-11T01:35:37.024Z,8.98
2018-04-11T01:38:07.343Z,8.80
2018-04-11T01:40:37.455Z,9.48
2018-04-11T01:43:08.479Z,9.57
2018-04-11T01:45:37.902Z,9.02
2018-04-11T01:48:07.404Z,9.90
2018-04-11T01:50:37.486Z,9.30
2018-04-11T01:53:06.832Z,8.40
2018-04-11T01:55:36.317Z,8.35
2018-04-11T01:58:05.840Z,9.00
2018-04-11T02:00:35.505Z,9.77
2018-04-11T02:03:04.847Z,9.48
2018-04-11T02:05:34.403Z,8.80
2018-04-11T02:08:03.854Z,9.02
2018-04-11T02:10:33.631Z,8.85
2018-04-11T02:13:03.068Z,9.05
2018-04-11T02:15:33.027Z,8.45
2018-04-11T02:18:03.320Z,8.10
2018-04-11T02:20:32.638Z,7.75
2018-04-11T02:23:02.124Z,7.72
2018-04-11T02:25:31.359Z,8.65
2018-04-11T02:28:00.746Z,7.68
2018-04-11T02:30:30.317Z,7.62
2018-04-11T02:32:59.738Z,7.87
2018-04-11T02:35:29.686Z,7.72
2018-04-11T02:37:59.792Z,7.68
2018-04-11T02:40:30.591Z,8.63
2018-04-11T02:43:00.228Z,8.68
2018-04-11T02:45:30.267Z,8.38
2018-04-11T02:47:59.711Z,8.88
2018-04-11T02:50:29.147Z,7.85
2018-04-11T02:52:58.371Z,7.70
2018-04-11T02:55:27.751Z,8.65
2018-04-11T02:57:56.992Z,7.93
2018-04-11T03:00:26.355Z,8.70
2018-04-11T03:02:55.576Z,7.60
2018-04-11T03:05:24.949Z,8.38
2018-04-11T03:07:55.332Z,8.20
2018-04-11T03:10:25.804Z,8.32
2018-04-11T03:12:55.035Z,8.70
2018-04-11T03:15:24.407Z,7.53
2018-04-11T03:17:53.644Z,8.50
2018-04-11T03:20:23.020Z,8.10
2018-04-11T03:22:52.235Z,8.20
2018-04-11T03:25:21.616Z,8.70
2018-04-11T03:27:50.843Z,8.68
2018-04-11T03:30:20.223Z,9.38
2018-04-11T03:32:49.456Z,9.40
2018-04-11T03:35:18.983Z,8.98
2018-04-11T03:37:48.223Z,9.23
2018-04-11T03:40:17.620Z,8.40
2018-04-11T03:42:47.006Z,9.55
2018-04-11T03:45:17.243Z,9.02
2018-04-11T03:47:46.746Z,9.40
2018-04-11T03:50:15.974Z,10.00
2018-04-11T03:52:46.004Z,10.05
2018-04-11T03:55:15.817Z,9.75
2018-04-11T03:57:45.184Z,8.88
2018-04-11T04:00:14.709Z,9.27
2018-04-11T04:02:46.314Z,9.50
2018-04-11T04:05:16.359Z,10.00
2018-04-11T04:07:47.152Z,9.27
2018-04-11T04:10:16.464Z,8.93
2018-04-11T04:12:46.516Z,8.95
2018-04-11T04:18:41.036Z,9.80
2018-04-11T04:21:11.036Z,9.32
2018-04-11T04:23:40.459Z,11.27
2018-04-11T04:26:10.375Z,9.45
2018-04-11T04:28:39.873Z,9.77
2018-04-11T04:31:09.095Z,8.85
2018-04-11T04:33:38.487Z,10.63
2018-04-11T04:36:08.625Z,9.55
2018-04-11T04:38:38.922Z,9.18
2018-04-11T04:41:08.157Z,11.00
2018-04-11T04:43:38.140Z,9.68
2018-04-11T04:46:07.372Z,10.15
2018-04-11T04:48:36.939Z,9.77
2018-04-11T04:51:07.414Z,10.07
2018-04-11T04:53:37.183Z,9.15
2018-04-11T04:56:06.411Z,10.55
2018-04-11T04:58:36.195Z,9.77
2018-04-11T05:01:05.436Z,9.18
2018-04-11T05:03:35.004Z,10.70
2018-04-11T05:06:04.651Z,10.65
2018-04-11T05:08:34.427Z,10.43
2018-04-11T05:11:04.076Z,11.63
2018-04-11T05:13:34.252Z,11.23
2018-04-11T05:16:03.761Z,10.75
2018-04-11T05:18:32.992Z,11.02
2018-04-11T05:21:03.004Z,10.23
2018-04-11T05:23:32.996Z,12.00
2018-04-11T05:26:02.404Z,11.45
2018-04-11T05:28:31.632Z,10.32
2018-04-11T05:31:00.997Z,11.35
2018-04-11T05:33:30.439Z,10.82
2018-04-11T05:35:59.805Z,13.00
2018-04-11T05:38:29.039Z,12.25
2018-04-11T05:40:58.392Z,10.35
2018-04-11T05:43:29.376Z,12.30
2018-04-11T05:45:59.493Z,11.35
2018-04-11T05:48:29.720Z,10.63
2018-04-11T05:50:59.093Z,11.77
2018-04-11T05:53:29.297Z,11.57
2018-04-11T05:55:58.719Z,11.95
2018-04-11T05:58:28.565Z,11.12
2018-04-11T06:00:58.757Z,12.00
2018-04-11T06:03:28.559Z,11.60
2018-04-11T06:05:58.011Z,11.00
2018-04-11T06:08:27.820Z,11.12
2018-04-11T06:10:57.722Z,10.85
2018-04-11T06:13:27.335Z,11.43
2018-04-11T06:15:57.605Z,11.68
2018-04-11T06:18:26.904Z,11.55
2018-04-11T06:20:56.261Z,13.75
2018-04-11T06:23:26.269Z,12.35
2018-04-11T06:25:55.508Z,11.75
2018-04-11T06:28:24.984Z,13.15
2018-04-11T06:30:55.304Z,12.45
2018-04-11T06:33:25.607Z,12.70
2018-04-11T06:35:55.629Z,11.15
2018-04-11T06:38:25.031Z,12.02
2018-04-11T06:40:54.263Z,11.75
2018-04-11T06:43:23.626Z,12.23
2018-04-11T06:45:53.382Z,12.35
2018-04-11T06:48:22.865Z,13.10
2018-04-11T06:50:52.862Z,12.82
2018-04-11T06:53:22.526Z,12.07
2018-04-11T06:55:51.766Z,13.05
2018-04-11T06:58:21.769Z,12.75
2018-04-11T07:00:52.188Z,13.55
2018-04-11T07:03:22.127Z,13.55
2018-04-11T07:05:52.092Z,13.23
2018-04-11T07:08:21.560Z,13.15
2018-04-11T07:10:51.358Z,14.23
2018-04-11T07:13:20.775Z,13.70
2018-04-11T07:15:50.041Z,13.68
2018-04-11T07:18:19.487Z,13.38
2018-04-11T07:20:48.711Z,15.20
2018-04-11T07:23:17.987Z,14.30
2018-04-11T07:25:47.406Z,14.10
2018-04-11T07:28:17.659Z,14.07
2018-04-11T07:30:47.087Z,14.15
2018-04-11T07:33:16.318Z,14.00
2018-04-11T07:35:46.642Z,14.10
2018-04-11T07:38:15.960Z,14.70
2018-04-11T07:40:45.456Z,15.20
2018-04-11T07:43:15.072Z,13.77
2018-04-11T07:45:44.648Z,14.27
2018-04-11T07:48:13.889Z,15.18
2018-04-11T07:50:43.246Z,12.80
2018-04-11T07:53:12.820Z,14.13
2018-04-11T07:55:42.882Z,14.20
2018-04-11T07:58:12.111Z,13.07
2018-04-11T08:00:42.303Z,14.80
2018-04-11T08:03:11.561Z,15.07
2018-04-11T08:05:41.131Z,13.85
2018-04-11T08:08:10.588Z,16.08
2018-04-11T08:10:39.823Z,20.00
2018-04-11T08:13:09.217Z,14.30
2018-04-11T08:15:38.472Z,14.27
2018-04-11T08:18:07.843Z,14.35
2018-04-11T08:20:37.048Z,13.62
2018-04-11T08:23:06.415Z,14.48
2018-04-11T08:25:35.660Z,13.65
2018-04-11T08:28:05.006Z,14.00
2018-04-11T08:30:34.664Z,12.73
2018-04-11T08:33:04.079Z,14.13
2018-04-11T08:35:33.311Z,14.07
2018-04-11T08:38:02.839Z,12.80
2018-04-11T08:40:32.071Z,13.98
2018-04-11T08:43:01.458Z,12.85
2018-04-11T08:45:33.131Z,13.15
2018-04-11T08:48:02.907Z,13.50
2018-04-11T08:50:32.364Z,13.30
2018-04-11T08:53:01.924Z,12.75
2018-04-11T08:55:31.156Z,13.30
2018-04-11T08:58:00.544Z,13.77
2018-04-11T09:00:30.543Z,15.30
2018-04-11T09:02:59.948Z,18.83
2018-04-11T09:05:29.424Z,14.98
2018-04-11T09:08:00.396Z,15.48
2018-04-11T09:10:31.071Z,13.52
2018-04-11T09:13:00.432Z,13.85
2018-04-11T09:15:29.884Z,15.30
2018-04-11T09:17:59.843Z,14.63
2018-04-11T09:20:29.351Z,14.50
2018-04-11T09:22:58.586Z,14.57
2018-04-11T09:25:28.767Z,14.07
2018-04-11T09:27:58.010Z,13.57
2018-04-11T09:30:27.373Z,13.00
2018-04-11T09:32:57.441Z,14.02
2018-04-11T09:35:27.207Z,14.43
2018-04-11T09:37:56.452Z,12.07
2018-04-11T09:40:25.816Z,13.40
2018-04-11T09:42:56.603Z,14.20
2018-04-11T09:45:26.802Z,13.80
2018-04-11T09:47:56.589Z,13.52
2018-04-11T09:50:27.107Z,13.10
2018-04-11T09:52:57.071Z,13.20
2018-04-11T09:55:26.538Z,14.55
2018-04-11T09:57:55.773Z,13.23
2018-04-11T10:00:25.171Z,12.10
2018-04-11T10:03:00.738Z,13.25
2018-04-11T10:05:30.711Z,12.57
2018-04-11T10:08:00.719Z,12.52
2018-04-11T10:10:30.883Z,12.20
2018-04-11T10:13:00.147Z,12.32
2018-04-11T10:15:29.542Z,12.27
2018-04-11T10:18:00.270Z,12.40
2018-04-11T10:20:30.235Z,13.65
2018-04-11T10:22:59.463Z,13.32
2018-04-11T10:25:28.706Z,11.30
2018-04-11T10:27:58.089Z,12.82
2018-04-11T10:30:27.337Z,13.43
2018-04-11T10:32:57.100Z,12.55
2018-04-11T10:35:26.336Z,11.12
2018-04-11T10:37:55.926Z,12.37
2018-04-11T10:40:25.927Z,11.12
2018-04-11T10:42:56.359Z,12.85
2018-04-11T10:45:26.371Z,13.73
2018-04-11T10:47:55.781Z,12.98
2018-04-11T10:50:25.796Z,13.15
2018-04-11T10:52:55.332Z,14.45
2018-04-11T10:55:24.576Z,15.68
2018-04-11T10:57:54.009Z,13.77
2018-04-11T11:00:23.244Z,14.60
2018-04-11T11:02:53.220Z,16.05
2018-04-11T11:05:22.470Z,15.38
2018-04-11T11:07:51.818Z,16.50
2018-04-11T11:10:21.051Z,16.65
2018-04-11T11:12:50.401Z,16.37
2018-04-11T11:15:20.360Z,17.98
2018-04-11T11:17:50.865Z,15.68
2018-04-11T11:20:20.206Z,18.83
2018-04-11T11:22:49.809Z,17.30
2018-04-11T11:25:20.155Z,17.08
2018-04-11T11:27:49.696Z,16.25
2018-04-11T11:30:20.711Z,16.23
2018-04-11T11:32:50.425Z,15.15
2018-04-11T11:35:19.889Z,16.30
2018-04-11T11:37:50.206Z,15.20
2018-04-11T11:40:20.504Z,16.48
2018-04-11T11:42:49.898Z,16.55
2018-04-11T11:45:19.317Z,15.63
2018-04-11T11:47:49.270Z,16.80
2018-04-11T11:50:18.741Z,14.98
2018-04-11T11:52:48.589Z,16.45
2018-04-11T11:55:17.954Z,16.35
2018-04-11T11:57:47.599Z,16.85
2018-04-11T12:00:16.970Z,17.73
2018-04-11T12:02:46.197Z,15.45
2018-04-11T12:05:15.565Z,15.65
2018-04-11T12:07:45.517Z,16.62
2018-04-11T12:10:14.994Z,18.70
2018-04-11T12:12:44.251Z,17.87
2018-04-11T12:15:13.804Z,14.90
2018-04-11T12:17:43.034Z,19.20
2018-04-11T12:20:12.402Z,17.65
2018-04-11T12:22:41.634Z,16.73
2018-04-11T12:25:11.626Z,16.23
2018-04-11T12:27:41.648Z,16.65
2018-04-11T12:30:11.061Z,13.73
2018-04-11T12:32:40.768Z,14.30
2018-04-11T12:35:10.454Z,16.02
2018-04-11T12:37:41.150Z,13.77
2018-04-11T12:40:10.710Z,15.18
2018-04-11T12:42:41.509Z,13.60
2018-04-11T12:45:11.138Z,14.95
2018-04-11T12:47:40.655Z,13.55
2018-04-11T12:50:09.885Z,14.00
2018-04-11T12:52:39.450Z,13.77
2018-04-11T12:55:08.701Z,12.75
2018-04-11T12:57:38.258Z,13.55
2018-04-11T13:00:07.490Z,14.25
2018-04-11T13:02:36.857Z,13.65
2018-04-11T13:05:06.605Z,13.32
2018-04-11T13:07:36.075Z,13.62
2018-04-11T13:10:05.356Z,12.80
2018-04-11T13:12:34.680Z,13.27
2018-04-11T13:15:03.915Z,12.43
2018-04-11T13:17:33.274Z,15.10
2018-04-11T13:20:03.155Z,13.52
2018-04-11T13:22:32.493Z,12.30
2018-04-11T13:25:02.342Z,13.75
2018-04-11T13:27:32.441Z,13.70
2018-04-11T13:30:01.664Z,13.07
2018-04-11T13:32:31.437Z,12.05
2018-04-11T13:35:01.506Z,13.32
2018-04-11T13:37:31.441Z,18.08
2018-04-11T13:40:00.683Z,13.43
2018-04-11T13:42:30.177Z,15.35
2018-04-11T13:45:00.354Z,13.32
2018-04-11T13:47:30.310Z,14.23
2018-04-11T13:49:59.522Z,13.65
2018-04-11T13:52:29.078Z,11.73
2018-04-11T13:54:59.144Z,15.95
2018-04-11T13:57:28.528Z,13.00
2018-04-11T13:59:58.045Z,13.32
2018-04-11T14:02:27.269Z,12.40
2018-04-11T14:04:56.589Z,14.40
2018-04-11T14:07:26.610Z,13.75
2018-04-11T14:09:56.894Z,12.13
2018-04-11T14:12:25.809Z,12.77
2018-04-11T14:14:55.193Z,12.13
2018-04-11T14:17:24.420Z,13.43
2018-04-11T14:19:53.823Z,13.15
2018-04-11T14:22:23.241Z,13.05
2018-04-11T14:24:54.024Z,13.60
2018-04-11T14:27:23.242Z,11.70
2018-04-11T14:29:53.057Z,12.18
2018-04-11T14:32:24.065Z,12.13
2018-04-11T14:34:54.131Z,11.85
2018-04-11T14:37:23.320Z,11.85
2018-04-11T14:39:52.697Z,10.93
2018-04-11T14:42:22.651Z,10.40
2018-04-11T14:44:52.949Z,13.75
2018-04-11T14:47:22.182Z,11.73
2018-04-11T14:49:51.556Z,10.50
2018-04-11T14:52:20.958Z,10.23
2018-04-11T14:54:50.198Z,9.18
2018-04-11T14:57:19.553Z,10.30
2018-04-11T14:59:48.793Z,10.18
2018-04-11T15:02:18.174Z,10.40
2018-04-11T15:04:48.156Z,8.68
2018-04-11T15:07:18.232Z,9.23
2018-04-11T15:09:48.257Z,9.50
2018-04-11T15:12:18.015Z,10.65
2018-04-11T15:14:47.752Z,10.73
2018-04-11T15:17:17.850Z,9.35
2018-04-11T15:19:47.074Z,9.52
2018-04-11T15:22:16.450Z,9.02
2018-04-11T15:24:45.666Z,9.32
2018-04-11T15:27:15.249Z,8.00
2018-04-11T15:29:46.066Z,9.18
2018-04-11T15:32:15.494Z,9.27
2018-04-11T15:34:44.722Z,12.25
2018-04-11T15:37:14.302Z,9.50
2018-04-11T15:39:43.530Z,8.73
2018-04-11T15:42:12.740Z,7.50
2018-04-11T15:44:43.845Z,8.27
2018-04-11T15:47:13.064Z,8.75
2018-04-11T15:49:42.454Z,7.75
2018-04-11T15:52:11.667Z,8.25
2018-04-11T15:54:41.871Z,7.85
2018-04-11T15:57:11.093Z,8.13
2018-04-11T15:59:40.417Z,7.22
2018-04-11T16:02:10.443Z,8.10
2018-04-11T16:04:40.297Z,9.20
2018-04-11T16:07:10.082Z,8.65
2018-04-11T16:09:39.925Z,7.90
2018-04-11T16:12:09.152Z,8.48
2018-04-11T16:14:38.457Z,8.13
2018-04-11T16:17:09.290Z,7.57
2018-04-11T16:19:39.792Z,7.62
2018-04-11T16:22:09.013Z,7.53
2018-04-11T16:24:38.394Z,7.85
2018-04-11T16:27:07.627Z,8.52
2018-04-11T16:29:37.001Z,8.90
2018-04-11T16:32:06.517Z,7.90
2018-04-11T16:34:37.441Z,7.10
2018-04-11T16:37:06.743Z,7.53
2018-04-11T16:39:36.262Z,8.85
2018-04-11T16:42:05.538Z,16.20
2018-04-11T16:44:35.679Z,7.57
2018-04-11T16:47:05.246Z,7.45
2018-04-11T16:49:34.583Z,8.40
2018-04-11T16:52:03.802Z,8.00
2018-04-11T16:54:34.736Z,8.00
2018-04-11T16:57:04.723Z,7.15
2018-04-11T16:59:34.755Z,6.90
2018-04-11T17:02:04.256Z,7.80
2018-04-11T17:04:33.492Z,7.60
2018-04-11T17:07:02.862Z,7.50
2018-04-11T17:09:32.399Z,7.72
2018-04-11T17:12:02.026Z,8.07
2018-04-11T17:14:31.326Z,9.02
2018-04-11T17:17:00.851Z,8.13
2018-04-11T17:19:30.023Z,15.07
2018-04-11T17:22:17.095Z,9.05
2018-04-11T17:25:04.042Z,8.30
2018-04-11T17:27:51.859Z,8.85
2018-04-11T17:30:38.726Z,7.82
2018-04-11T17:33:08.373Z,7.37
2018-04-11T17:35:37.601Z,7.95
2018-04-11T17:38:06.965Z,8.00
2018-04-11T17:40:36.510Z,7.80
2018-04-11T17:43:07.212Z,8.63
2018-04-11T17:45:37.046Z,9.88
2018-04-11T17:48:06.427Z,8.73
2018-04-11T17:50:35.648Z,11.35
2018-04-11T17:53:05.028Z,11.75
2018-04-11T17:55:34.251Z,8.07
2018-04-11T17:58:03.633Z,9.05
2018-04-11T18:00:34.416Z,9.52
2018-04-11T18:03:04.215Z,8.25
2018-04-11T18:05:34.128Z,9.77
2018-04-11T18:08:03.463Z,9.32
2018-04-11T18:10:32.690Z,10.38
2018-04-11T18:13:02.097Z,8.48
2018-04-11T18:15:31.610Z,9.10
2018-04-11T18:18:02.849Z,9.02
2018-04-11T18:20:32.317Z,11.82
2018-04-11T18:23:01.534Z,10.65
2018-04-11T18:25:31.062Z,10.00
2018-04-11T18:28:00.282Z,9.27
2018-04-11T18:30:29.662Z,10.52
2018-04-11T18:32:59.610Z,9.85
2018-04-11T18:35:29.897Z,12.40
2018-04-11T18:37:59.739Z,11.27
2018-04-11T18:40:29.113Z,11.10
2018-04-11T18:42:58.834Z,10.88
2018-04-11T18:45:28.163Z,10.05
2018-04-11T18:47:58.954Z,11.48
2018-04-11T18:50:29.604Z,13.35
2018-04-11T18:53:00.343Z,12.18
2018-04-11T18:55:29.645Z,11.07
2018-04-11T18:57:58.866Z,10.88
2018-04-11T19:00:28.245Z,12.52
2018-04-11T19:02:58.535Z,14.95
2018-04-11T19:05:28.066Z,14.70
2018-04-11T19:07:57.554Z,18.98
2018-04-11T19:10:27.281Z,14.18
2018-04-11T19:12:58.250Z,17.10
2018-04-11T19:15:28.757Z,14.55
2018-04-11T19:17:58.788Z,13.48
2018-04-11T19:20:28.996Z,14.45
2018-04-11T19:22:59.011Z,13.35
2018-04-11T19:25:29.747Z,13.98
2018-04-11T19:27:59.763Z,13.90
2018-04-11T19:30:29.684Z,14.87
2018-04-11T19:33:00.010Z,17.85
2018-04-11T19:35:29.771Z,17.62
2018-04-11T19:37:59.856Z,14.20
2018-04-11T19:40:29.095Z,13.52
2018-04-11T19:42:58.444Z,13.82
2018-04-11T19:45:27.676Z,13.98
2018-04-11T19:47:57.065Z,15.52
2018-04-11T19:50:27.592Z,14.13
2018-04-11T19:52:57.895Z,12.25
2018-04-11T19:55:27.110Z,13.52
2018-04-11T19:57:56.506Z,13.93
2018-04-11T20:00:25.758Z,14.98
2018-04-11T20:02:55.099Z,14.07
2018-04-11T20:05:25.270Z,11.27
2018-04-11T20:07:54.721Z,13.75
2018-04-11T20:10:23.957Z,13.90
2018-04-11T20:12:53.574Z,12.88
2018-04-11T20:15:22.883Z,14.13
2018-04-11T20:17:52.338Z,19.33
2018-04-11T20:20:22.798Z,12.18
2018-04-11T20:22:53.002Z,12.82
2018-04-11T20:25:23.112Z,15.48
2018-04-11T20:27:52.864Z,12.70
2018-04-11T20:30:22.327Z,12.27
2018-04-11T20:32:51.792Z,12.37
2018-04-11T20:35:21.335Z,14.63
2018-04-11T20:37:50.555Z,17.92
2018-04-11T20:40:20.006Z,21.37
2018-04-11T20:42:49.658Z,13.50
2018-04-11T20:45:19.154Z,13.48
2018-04-11T20:47:48.379Z,11.75
2018-04-11T20:50:17.756Z,11.23
2018-04-11T20:52:46.975Z,12.18
2018-04-11T20:55:16.363Z,10.65
2018-04-11T20:57:45.586Z,12.02
2018-04-11T21:00:14.951Z,11.23
2018-04-11T21:02:44.355Z,10.80
2018-04-11T21:05:13.661Z,11.80
2018-04-11T21:07:43.520Z,9.80
2018-04-11T21:10:12.982Z,11.60
2018-04-11T21:12:42.198Z,9.00
2018-04-11T21:15:11.788Z,11.48
2018-04-11T21:17:42.139Z,9.48
2018-04-11T21:20:12.239Z,7.97
2018-04-11T21:22:41.458Z,11.52
2018-04-11T21:25:10.696Z,11.80
2018-04-11T21:27:40.135Z,8.55
2018-04-11T21:30:09.406Z,13.30
2018-04-11T21:32:38.738Z,12.00
2018-04-11T21:35:08.819Z,11.12
2018-04-11T21:37:38.159Z,13.35
2018-04-11T21:40:07.379Z,8.20
2018-04-11T21:42:37.167Z,8.02
2018-04-11T21:45:06.386Z,9.30
2018-04-11T21:47:36.386Z,8.10
2018-04-11T21:50:05.607Z,11.02
2018-04-11T21:52:34.939Z,8.40
2018-04-11T21:55:04.671Z,18.48
2018-04-11T21:57:35.035Z,11.05
2018-04-11T22:00:04.250Z,18.33
2018-04-11T22:02:33.622Z,8.68
2018-04-11T22:05:04.417Z,9.55
2018-04-11T22:07:33.866Z,8.18
2018-04-11T22:10:03.127Z,8.30
2018-04-11T22:12:32.470Z,10.00
2018-04-11T22:15:01.694Z,8.35
2018-04-11T22:17:31.274Z,9.55
2018-04-11T22:20:00.679Z,8.43
2018-04-11T22:22:30.080Z,9.95
2018-04-11T22:25:00.074Z,9.10
2018-04-11T22:27:30.939Z,10.70
2018-04-11T22:30:00.161Z,8.77
2018-04-11T22:32:29.378Z,8.32
2018-04-11T22:34:58.834Z,11.70
2018-04-11T22:37:28.056Z,8.82
2018-04-11T22:39:57.364Z,9.30
2018-04-11T22:42:27.370Z,8.57
2018-04-11T22:44:57.571Z,8.70
2018-04-11T22:47:26.795Z,10.05
2018-04-11T22:49:57.102Z,7.87
2018-04-11T22:52:27.002Z,9.40
2018-04-11T22:54:56.535Z,9.65
2018-04-11T22:57:26.266Z,9.80
2018-04-11T22:59:56.350Z,8.13
2018-04-11T23:02:25.570Z,7.40
2018-04-11T23:04:54.950Z,10.05
2018-04-11T23:07:25.369Z,9.05
2018-04-11T23:09:54.803Z,8.40
2018-04-11T23:12:24.866Z,8.40
2018-04-11T23:14:54.223Z,7.97
2018-04-11T23:17:23.427Z,8.60
2018-04-11T23:19:53.013Z,9.20
2018-04-11T23:22:22.230Z,8.75
2018-04-11T23:24:51.634Z,8.60
2018-04-11T23:27:21.286Z,9.57
2018-04-11T23:29:50.834Z,8.70
2018-04-11T23:32:20.305Z,9.05
2018-04-11T23:34:49.523Z,9.32
2018-04-11T23:37:19.474Z,9.10
2018-04-11T23:39:48.734Z,8.85
2018-04-11T23:42:18.162Z,8.40
2018-04-11T23:44:47.610Z,8.73
2018-04-11T23:47:17.170Z,8.60
2018-04-11T23:49:47.039Z,8.98
2018-04-11T23:52:16.387Z,9.60
2018-04-11T23:54:45.603Z,8.95
2018-04-11T23:57:15.810Z,9.13
2018-04-11T23:59:45.028Z,8.88
